Campanya Meteocatpedra
Centenari de l'SMC: 100 anys mirant el cel

Dades de l'estació automàtica Sant Pau de Segúries

?
?

Resum diari

23:00 TU
Dades diàries de l'estació meteorològica
Temperatura mitjana 12.1 °C
Temperatura màxima 17.4 °C 10:33 TU
Temperatura mínima 9.3 °C 23:29 TU
Humitat relativa mitjana 96%
Precipitació acumulada 10.0 mm
Ratxa màxima del vent (10 m) 14.0 km/h - 57º 12:29 TU
Pressió atmosfèrica mitjana 1019.5 hPa

El tram horari està expressat en Temps Universal (TU). Cal sumar una hora en horari d'hivern i dues en horari d'estiu per passar a l'hora oficial.

Sant Pau de Segúries

Metadades estació meteorològica
Municipi Sant Pau de Segúries
Comarca Ripollès
Altitud 852 m
Data alta 24.11.1995
Estat actual Operativa
Dades de període
Període
TU
TM
°C
TX
°C
TN
°C
HRM
%
PPT
mm
VVM (10 m)
km/h
DVM (10 m)
graus
VVX (10 m)
km/h
PM
hPa
00:00 - 00:30 10.4 10.6 10.1 100 0.0 0.0 0 0.0 1020.5
00:30 - 01:00 10.5 10.6 10.4 100 0.0 0.0 0 0.0 1020.2
01:00 - 01:30 10.4 10.4 10.3 100 0.0 0.4 93 3.2 1020.0
01:30 - 02:00 10.4 10.5 10.3 100 0.0 0.4 191 2.5 1019.7
02:00 - 02:30 10.4 10.5 10.3 100 0.0 0.4 191 2.9 1019.6
02:30 - 03:00 10.3 10.4 10.2 100 0.0 0.4 204 5.0 1019.5
03:00 - 03:30 10.3 10.6 10.2 100 0.0 0.4 157 2.5 1019.3
03:30 - 04:00 10.9 11.1 10.7 100 0.0 0.7 76 3.2 1019.0
04:00 - 04:30 10.4 10.7 10.3 100 0.0 1.1 245 5.0 1019.2
04:30 - 05:00 10.3 10.4 10.2 100 0.0 1.4 238 4.3 1019.3
05:00 - 05:30 10.2 10.3 10.1 100 0.0 0.7 239 4.3 1019.4
05:30 - 06:00 10.4 10.6 10.3 100 0.0 0.7 184 3.2 1019.6
06:00 - 06:30 10.9 11.3 10.6 100 0.0 1.4 86 7.2 1019.5
06:30 - 07:00 11.2 11.4 11.1 97 0.0 2.9 52 9.0 1019.5
07:00 - 07:30 11.5 11.6 11.4 93 0.0 3.2 44 9.0 1019.4
07:30 - 08:00 11.8 12.4 11.5 91 0.0 2.5 81 11.5 1019.4
08:00 - 08:30 13.3 13.8 12.4 86 0.0 1.1 59 4.7 1018.9
08:30 - 09:00 14.2 15.0 13.6 86 0.0 1.4 123 5.4 1018.5
09:00 - 09:30 15.7 16.3 15.0 80 0.0 4.0 53 7.9 1017.9
09:30 - 10:00 16.4 17.1 16.1 75 0.0 4.0 44 9.0 1017.5
10:00 - 10:30 16.8 17.1 16.2 74 0.0 3.6 84 10.4 1017.3
10:30 - 11:00 16.7 17.4 16.2 70 0.0 3.6 129 12.6 1017.2
11:00 - 11:30 16.0 16.3 15.4 77 0.1 4.0 70 10.1 1017.3
11:30 - 12:00 15.5 16.1 15.2 90 0.3 2.9 65 9.0 1017.4
12:00 - 12:30 16.0 16.5 15.6 88 0.0 5.0 68 14.0 1017.4
12:30 - 13:00 15.5 15.7 15.3 91 0.0 4.7 72 11.9 1017.2
13:00 - 13:30 14.6 15.2 14.1 98 0.6 4.3 132 13.7 1017.5
13:30 - 14:00 13.7 14.1 13.5 100 0.6 2.9 159 10.4 1017.9
14:00 - 14:30 13.7 13.9 13.4 100 0.1 4.0 81 11.2 1018.1
14:30 - 15:00 13.1 13.3 12.8 99 0.0 4.7 93 12.2 1018.4
15:00 - 15:30 12.3 12.8 11.9 100 0.4 2.5 135 11.2 1018.8
15:30 - 16:00 11.7 11.9 11.7 100 1.0 2.2 335 6.5 1019.2
16:00 - 16:30 11.6 11.7 11.5 100 1.6 2.9 44 7.6 1019.4
16:30 - 17:00 11.6 11.7 11.5 100 0.4 0.7 101 5.0 1019.5
17:00 - 17:30 11.4 11.6 11.3 100 2.2 1.8 171 11.2 1020.0
17:30 - 18:00 11.3 11.4 11.3 100 2.6 3.6 45 8.6 1020.2
18:00 - 18:30 11.3 11.4 11.2 100 0.1 2.2 58 6.1 1020.6
18:30 - 19:00 11.2 11.3 11.1 100 0.0 1.1 21 4.3 1020.9
19:00 - 19:30 11.1 11.2 11.1 100 0.0 0.7 41 4.3 1021.3
19:30 - 20:00 11.1 11.2 11.0 100 0.0 1.8 30 5.4 1021.6
20:00 - 20:30 11.0 11.0 11.0 100 0.0 0.0 98 2.2 1021.9
20:30 - 21:00 11.0 11.1 10.9 100 0.0 1.4 223 5.0 1021.8
21:00 - 21:30 10.8 10.9 10.6 100 0.0 2.2 221 6.8 1022.0
21:30 - 22:00 10.5 10.6 10.2 100 0.0 0.4 253 2.9 1022.1
22:00 - 22:30 10.1 10.2 9.9 100 0.0 1.4 234 5.4 1022.2
22:30 - 23:00 9.9 10.2 9.5 100 0.0 2.5 307 9.0 1022.2
23:00 - 23:30 9.5 9.8 9.3 100 0.0 1.8 325 7.6 1022.6

Les dades en taronja només han passat un control de qualitat automàtic. Resta pendent la seva validació definitiva.